Time;durP1;ratioP1;P1;durP2;ratioP2;P2;SDS_P1;SDS_P2;PMS_P1;PMS_P2;Temp;Humidity;BMP_temperature;BMP_pressure;BME280_temperature;BME280_humidity;BME280_pressure;Samples;Min_cycle;Max_cycle;Signal;HPM_P1;HPM_P2
2021/06/22 00:00:28;;;;;;;7.05;5.43;;;14.20;81.60;;;;;;5075371;28;20432;-36
2021/06/22 00:02:55;;;;;;;11.25;5.50;;;14.30;81.30;;;;;;5093634;28;20479;-36
2021/06/22 00:05:22;;;;;;;10.82;4.65;;;14.20;81.50;;;;;;5093283;28;20032;-36
2021/06/22 00:07:51;;;;;;;7.43;4.35;;;14.10;81.60;;;;;;5075514;28;20028;-36
2021/06/22 00:10:20;;;;;;;8.52;4.70;;;14.20;81.20;;;;;;5093513;28;20020;-36
2021/06/22 00:12:47;;;;;;;5.40;3.80;;;14.10;81.70;;;;;;5094132;28;20029;-36
2021/06/22 00:15:18;;;;;;;10.55;4.22;;;14.20;81.10;;;;;;5075983;28;20056;-36
2021/06/22 00:17:44;;;;;;;6.53;3.95;;;14.30;80.80;;;;;;5093984;28;20016;-38
2021/06/22 00:20:11;;;;;;;5.65;3.67;;;14.20;81.00;;;;;;5093907;28;20051;-37
2021/06/22 00:22:38;;;;;;;6.20;3.80;;;14.20;80.70;;;;;;5078997;28;20548;-37
2021/06/22 00:25:06;;;;;;;10.30;4.22;;;14.30;80.00;;;;;;5097164;28;20035;-37
2021/06/22 00:27:32;;;;;;;13.52;5.60;;;14.20;80.10;;;;;;5078821;28;20395;-37
2021/06/22 00:29:58;;;;;;;11.20;3.83;;;14.00;80.60;;;;;;5096976;28;20028;-37
2021/06/22 00:32:23;;;;;;;13.43;4.22;;;14.20;80.50;;;;;;5096871;28;20052;-37
2021/06/22 00:34:49;;;;;;;7.03;2.97;;;14.10;80.50;;;;;;5097234;28;20046;-37
2021/06/22 00:37:17;;;;;;;7.80;3.95;;;14.10;80.70;;;;;;5096946;28;20054;-37
2021/06/22 00:39:43;;;;;;;7.70;3.88;;;14.00;80.70;;;;;;5096911;28;20064;-37
2021/06/22 00:42:10;;;;;;;7.22;3.67;;;13.90;80.90;;;;;;5097129;28;20481;-37
2021/06/22 00:44:45;;;;;;;6.47;2.72;;;13.80;81.20;;;;;;5096755;28;20031;-36
2021/06/22 00:47:10;;;;;;;10.38;4.53;;;13.80;81.50;;;;;;5096769;28;20379;-37
2021/06/22 00:49:36;;;;;;;6.85;3.03;;;13.80;81.40;;;;;;5096684;28;20036;-44
2021/06/22 00:52:02;;;;;;;4.95;3.53;;;13.70;81.70;;;;;;5096649;28;20024;-37
2021/06/22 00:54:28;;;;;;;10.10;3.70;;;13.60;82.00;;;;;;5078352;28;20024;-37
2021/06/22 00:56:54;;;;;;;8.77;4.10;;;13.60;82.20;;;;;;5096562;28;20027;-37
2021/06/22 00:59:20;;;;;;;8.18;3.95;;;13.60;82.10;;;;;;5096725;28;20019;-37
2021/06/22 01:01:46;;;;;;;6.72;3.88;;;13.70;81.70;;;;;;5096409;28;20086;-37
2021/06/22 01:04:12;;;;;;;8.38;3.45;;;13.60;82.10;;;;;;5097150;28;20040;-37
2021/06/22 01:06:37;;;;;;;8.98;3.67;;;13.60;82.10;;;;;;5096335;28;20035;-37
2021/06/22 01:09:07;;;;;;;12.05;3.70;;;13.50;82.50;;;;;;5078110;28;20031;-37
2021/06/22 01:11:33;;;;;;;11.38;4.28;;;13.40;82.70;;;;;;5096674;28;20468;-37
2021/06/22 01:13:58;;;;;;;11.35;4.28;;;13.50;82.30;;;;;;5096999;28;20034;-37
2021/06/22 01:16:29;;;;;;;7.40;3.80;;;13.50;82.30;;;;;;5096278;28;20063;-37
2021/06/22 01:18:58;;;;;;;;;;;13.30;82.90;;;;;;5096853;28;20099;-37
2021/06/22 01:21:25;;;;;;;7.20;3.53;;;13.30;83.30;;;;;;5096064;28;20332;-37
2021/06/22 01:23:51;;;;;;;7.53;4.55;;;13.40;83.00;;;;;;5096007;28;20032;-37
2021/06/22 01:26:16;;;;;;;11.80;3.47;;;13.40;82.80;;;;;;5096227;28;20031;-37
2021/06/22 01:28:42;;;;;;;8.07;3.60;;;13.50;82.70;;;;;;5096168;28;20020;-37
2021/06/22 01:31:11;;;;;;;11.73;3.55;;;13.40;82.50;;;;;;5095734;28;20399;-37
2021/06/22 01:33:38;;;;;;;12.55;4.68;;;13.50;82.80;;;;;;5094985;28;20032;-35
2021/06/22 01:36:04;;;;;;;15.05;4.95;;;13.60;82.10;;;;;;5096864;28;20028;-36
2021/06/22 01:38:30;;;;;;;14.73;4.13;;;13.50;82.50;;;;;;5095722;28;20067;-36
2021/06/22 01:40:55;;;;;;;9.45;3.53;;;13.50;82.50;;;;;;5095961;28;20056;-36
2021/06/22 01:43:24;;;;;;;9.20;4.28;;;13.50;82.50;;;;;;5095911;28;20544;-35
2021/06/22 01:45:50;;;;;;;9.65;4.15;;;13.50;82.50;;;;;;5077463;28;20057;-36
2021/06/22 01:48:16;;;;;;;12.45;4.55;;;13.40;82.70;;;;;;5095573;28;20140;-36
2021/06/22 01:50:42;;;;;;;13.50;4.30;;;13.40;82.80;;;;;;5095774;28;20127;-35
2021/06/22 01:53:08;;;;;;;13.05;4.82;;;13.30;82.80;;;;;;5095439;28;20020;-35
2021/06/22 01:55:39;;;;;;;13.00;4.63;;;13.30;83.20;;;;;;5095426;28;20040;-35
2021/06/22 01:58:06;;;;;;;;;;;13.20;83.50;;;;;;5095848;28;20026;-35
2021/06/22 02:00:32;;;;;;;9.77;3.97;;;13.20;83.70;;;;;;5095632;28;20320;-35
2021/06/22 02:02:57;;;;;;;12.10;3.88;;;13.20;83.40;;;;;;5095569;28;20024;-35
2021/06/22 02:05:23;;;;;;;9.65;5.15;;;13.30;83.40;;;;;;5077118;28;20428;-35
2021/06/22 02:07:49;;;;;;;6.95;4.55;;;13.20;83.30;;;;;;5095251;28;20102;-35
2021/06/22 02:10:14;;;;;;;14.07;4.00;;;13.30;82.80;;;;;;5077027;28;20032;-35
2021/06/22 02:12:40;;;;;;;12.48;4.20;;;13.20;82.90;;;;;;5095194;28;20524;-35
2021/06/22 02:15:07;;;;;;;22.38;5.90;;;13.00;83.00;;;;;;5095022;28;20024;-36
2021/06/22 02:17:33;;;;;;;13.02;5.05;;;13.10;83.30;;;;;;5094952;28;20433;-45
2021/06/22 02:19:59;;;;;;;6.68;4.35;;;13.10;83.10;;;;;;5094931;28;20020;-38
2021/06/22 02:22:25;;;;;;;11.35;4.47;;;13.10;83.00;;;;;;5094802;28;20107;-35
2021/06/22 02:24:51;;;;;;;12.05;4.68;;;13.10;82.90;;;;;;5094876;28;20115;-35
2021/06/22 02:27:23;;;;;;;9.25;4.63;;;13.10;82.80;;;;;;5077017;28;20031;-38
2021/06/22 02:29:49;;;;;;;9.95;4.63;;;13.10;82.90;;;;;;5094717;28;20027;-37
2021/06/22 02:32:15;;;;;;;10.63;4.50;;;13.00;83.20;;;;;;5094369;28;20048;-36
2021/06/22 02:34:40;;;;;;;12.77;4.95;;;12.90;83.40;;;;;;5094680;28;20028;-36
2021/06/22 02:37:06;;;;;;;6.15;4.80;;;12.90;83.50;;;;;;5094864;28;20161;-35
2021/06/22 02:39:32;;;;;;;8.43;5.28;;;12.90;83.50;;;;;;5094544;28;20024;-36
2021/06/22 02:41:58;;;;;;;12.98;5.18;;;13.00;83.50;;;;;;5094424;28;20021;-35
2021/06/22 02:44:23;;;;;;;9.57;4.97;;;12.90;83.70;;;;;;5094626;28;20099;-35
2021/06/22 02:46:49;;;;;;;10.15;4.50;;;12.90;83.70;;;;;;5094398;28;20074;-35
2021/06/22 02:49:15;;;;;;;11.05;4.07;;;12.90;83.70;;;;;;5094348;28;20035;-35
2021/06/22 02:51:40;;;;;;;14.18;5.88;;;12.80;84.20;;;;;;5094342;28;20024;-35
2021/06/22 02:54:06;;;;;;;21.00;5.15;;;12.90;84.20;;;;;;5076111;28;20418;-36
2021/06/22 02:56:32;;;;;;;10.88;5.00;;;12.80;84.50;;;;;;5094512;28;20035;-35
2021/06/22 02:58:57;;;;;;;9.38;4.35;;;12.90;84.20;;;;;;5094793;28;20370;-35
2021/06/22 03:01:23;;;;;;;8.32;5.18;;;12.80;84.40;;;;;;5094186;28;20027;-35
2021/06/22 03:03:49;;;;;;;22.83;6.55;;;12.80;84.80;;;;;;5094115;28;20020;-35
2021/06/22 03:06:14;;;;;;;11.40;5.28;;;12.70;85.30;;;;;;5094391;28;20157;-35
2021/06/22 03:08:40;;;;;;;11.48;5.75;;;12.70;85.50;;;;;;5075769;28;20024;-36
2021/06/22 03:11:05;;;;;;;9.30;5.50;;;12.70;85.40;;;;;;5076191;28;20074;-35
2021/06/22 03:13:31;;;;;;;15.63;5.68;;;12.70;85.40;;;;;;5093976;28;20036;-35
2021/06/22 03:15:57;;;;;;;19.25;5.13;;;12.70;85.50;;;;;;5094181;28;20465;-35
2021/06/22 03:18:22;;;;;;;16.85;6.45;;;12.50;85.90;;;;;;5075704;28;20436;-35
2021/06/22 03:20:48;;;;;;;10.77;5.15;;;12.50;86.00;;;;;;5093701;28;20082;-35
2021/06/22 03:23:14;;;;;;;15.43;5.47;;;12.70;85.50;;;;;;5093749;28;20028;-35
2021/06/22 03:25:39;;;;;;;11.23;6.03;;;12.60;86.00;;;;;;5093681;28;20024;-37
2021/06/22 03:28:06;;;;;;;17.40;5.80;;;12.50;86.30;;;;;;5093712;28;20111;-35
2021/06/22 03:30:32;;;;;;;15.65;6.57;;;12.60;86.10;;;;;;5093927;28;20035;-36
2021/06/22 03:32:58;;;;;;;14.10;5.82;;;12.60;86.30;;;;;;5073242;28;20392;-35
2021/06/22 03:35:27;;;;;;;12.60;5.68;;;12.70;86.50;;;;;;5073436;28;20021;-35
2021/06/22 03:37:53;;;;;;;8.60;5.40;;;12.70;86.20;;;;;;5073652;28;20035;-35
2021/06/22 03:40:21;;;;;;;11.10;5.82;;;12.70;86.20;;;;;;5073325;28;20029;-35
2021/06/22 03:42:47;;;;;;;13.95;5.85;;;12.60;86.50;;;;;;5073309;28;20020;-35
2021/06/22 03:45:14;;;;;;;16.20;5.97;;;12.70;86.30;;;;;;5073313;28;20476;-35
2021/06/22 03:47:40;;;;;;;17.83;5.97;;;12.70;86.40;;;;;;5074136;28;20028;-35
2021/06/22 03:50:07;;;;;;;20.65;6.88;;;12.70;86.30;;;;;;5073558;28;20028;-35
2021/06/22 03:52:34;;;;;;;14.00;6.00;;;12.60;86.80;;;;;;5073064;28;20032;-35
2021/06/22 03:55:00;;;;;;;15.20;5.95;;;12.60;86.80;;;;;;5073025;28;20020;-35
2021/06/22 03:57:26;;;;;;;19.67;6.30;;;12.90;85.90;;;;;;5073103;28;20025;-36
2021/06/22 03:59:52;;;;;;;12.82;6.07;;;12.80;85.70;;;;;;5073179;28;20029;-37
2021/06/22 04:02:19;;;;;;;7.25;5.50;;;12.80;86.10;;;;;;5073386;28;20027;-35
2021/06/22 04:04:44;;;;;;;11.43;5.80;;;12.80;86.30;;;;;;5073126;28;20032;-35
2021/06/22 04:07:10;;;;;;;22.67;8.48;;;12.80;86.30;;;;;;5073347;28;20035;-35
2021/06/22 04:09:36;;;;;;;14.55;6.75;;;12.80;86.10;;;;;;5073318;28;20028;-35
2021/06/22 04:12:02;;;;;;;12.05;5.60;;;12.80;86.10;;;;;;5072987;28;20332;-35
2021/06/22 04:14:28;;;;;;;14.10;6.28;;;12.80;85.80;;;;;;5072930;28;20027;-35
2021/06/22 04:16:54;;;;;;;19.25;6.63;;;12.90;85.60;;;;;;5073012;28;20033;-35
2021/06/22 04:19:19;;;;;;;28.55;8.18;;;12.80;85.50;;;;;;5072915;28;20464;-35
2021/06/22 04:21:45;;;;;;;16.02;5.93;;;12.80;85.70;;;;;;5072870;28;20016;-36
2021/06/22 04:24:11;;;;;;;16.85;5.82;;;12.80;85.80;;;;;;5072812;28;20024;-35
2021/06/22 04:26:36;;;;;;;12.20;6.05;;;12.80;85.80;;;;;;5072860;28;20032;-35
2021/06/22 04:29:03;;;;;;;11.77;5.88;;;12.80;85.70;;;;;;5073076;28;20031;-35
2021/06/22 04:31:29;;;;;;;15.18;6.32;;;12.90;85.30;;;;;;5080719;28;20203;-35
2021/06/22 04:33:54;;;;;;;12.68;6.75;;;13.00;85.40;;;;;;5074792;28;20551;-35
2021/06/22 04:36:20;;;;;;;12.32;5.80;;;13.10;85.30;;;;;;5092951;28;20024;-35
2021/06/22 04:38:46;;;;;;;14.45;7.10;;;13.10;84.90;;;;;;5093262;28;20103;-36
2021/06/22 04:41:12;;;;;;;16.85;6.03;;;13.20;84.70;;;;;;5093153;28;20020;-36
2021/06/22 04:43:37;;;;;;;14.88;6.35;;;13.10;84.70;;;;;;5092888;28;20028;-36
2021/06/22 04:46:03;;;;;;;11.93;5.78;;;13.30;84.40;;;;;;5074755;28;20020;-38
2021/06/22 04:48:29;;;;;;;18.60;5.00;;;13.40;83.90;;;;;;5074533;28;20032;-35
2021/06/22 04:50:58;;;;;;;10.98;4.85;;;13.50;83.30;;;;;;5092932;28;20032;-36
2021/06/22 04:53:25;;;;;;;15.68;5.55;;;13.40;83.20;;;;;;5092633;28;20020;-36
2021/06/22 04:55:51;;;;;;;11.80;6.32;;;13.30;83.80;;;;;;5092715;28;20048;-35
2021/06/22 04:58:16;;;;;;;14.20;6.38;;;13.20;84.20;;;;;;5092669;28;20376;-35
2021/06/22 05:00:42;;;;;;;11.57;5.65;;;13.30;84.00;;;;;;5092755;28;20020;-35
2021/06/22 05:03:08;;;;;;;14.82;6.50;;;13.30;84.10;;;;;;5074564;28;20101;-35
2021/06/22 05:05:33;;;;;;;13.00;5.32;;;13.50;83.30;;;;;;5092564;28;20491;-35
2021/06/22 05:07:59;;;;;;;9.70;5.07;;;13.70;82.40;;;;;;5093757;28;20035;-38
2021/06/22 05:10:24;;;;;;;13.25;5.10;;;13.60;82.10;;;;;;5077988;28;20028;-35
2021/06/22 05:12:50;;;;;;;14.48;6.05;;;13.60;82.50;;;;;;5096220;28;20078;-35
2021/06/22 05:15:16;;;;;;;11.90;4.60;;;13.60;82.50;;;;;;5096036;28;20026;-35
2021/06/22 05:17:42;;;;;;;12.18;4.93;;;13.60;82.50;;;;;;5077954;28;20537;-36
2021/06/22 05:20:08;;;;;;;17.33;5.75;;;13.70;82.30;;;;;;5096245;28;20028;-36
2021/06/22 05:22:34;;;;;;;12.07;5.93;;;13.70;82.30;;;;;;5096175;28;20032;-36
2021/06/22 05:25:00;;;;;;;13.82;5.97;;;13.80;82.20;;;;;;5096213;28;20026;-35
2021/06/22 05:27:26;;;;;;;9.35;4.88;;;13.80;81.80;;;;;;5096215;28;20044;-36
2021/06/22 05:29:51;;;;;;;18.38;7.05;;;13.80;81.90;;;;;;5095690;28;20016;-35
2021/06/22 05:32:17;;;;;;;13.98;6.38;;;13.90;81.80;;;;;;5095620;28;20074;-36
2021/06/22 05:34:43;;;;;;;13.85;5.95;;;14.20;80.80;;;;;;5095844;28;20024;-35
2021/06/22 05:37:09;;;;;;;22.52;5.68;;;14.00;81.10;;;;;;5095762;28;20020;-35
2021/06/22 05:39:35;;;;;;;12.68;4.70;;;14.10;80.90;;;;;;5095373;28;20051;-35
2021/06/22 05:42:01;;;;;;;9.98;5.13;;;13.90;80.90;;;;;;5095270;28;20085;-35
2021/06/22 05:44:28;;;;;;;18.50;5.68;;;14.00;81.00;;;;;;5094955;28;20020;-35
2021/06/22 05:46:53;;;;;;;10.77;5.10;;;14.10;80.90;;;;;;5095446;28;20025;-35
2021/06/22 05:49:19;;;;;;;15.20;4.72;;;14.20;80.30;;;;;;5095388;28;20375;-38
2021/06/22 05:51:45;;;;;;;14.43;5.90;;;14.30;80.20;;;;;;5094995;28;20032;-36
2021/06/22 05:54:12;;;;;;;13.27;5.38;;;14.30;79.80;;;;;;5076738;28;20020;-38
2021/06/22 05:56:38;;;;;;;12.35;5.10;;;14.30;79.80;;;;;;5094969;28;20066;-37
2021/06/22 05:59:04;;;;;;;9.40;5.35;;;14.20;80.10;;;;;;5094800;28;20436;-38
2021/06/22 06:01:29;;;;;;;15.32;7.03;;;14.40;79.40;;;;;;5095040;28;20058;-36
2021/06/22 06:03:55;;;;;;;16.80;4.97;;;14.60;79.10;;;;;;5095025;28;20479;-36
2021/06/22 06:06:21;;;;;;;17.30;5.28;;;14.80;78.70;;;;;;5076585;28;20115;-36
2021/06/22 06:08:46;;;;;;;21.92;5.72;;;14.90;77.80;;;;;;5094920;28;20024;-36
2021/06/22 06:11:12;;;;;;;14.45;5.70;;;15.10;77.20;;;;;;5094620;28;20099;-36
2021/06/22 06:13:38;;;;;;;13.88;6.05;;;15.30;76.40;;;;;;5094441;28;20131;-36
2021/06/22 06:16:06;;;;;;;11.75;4.93;;;15.00;77.00;;;;;;5094385;28;20020;-36
2021/06/22 06:18:32;;;;;;;9.93;4.20;;;14.80;77.40;;;;;;5095471;28;20020;-36
2021/06/22 06:20:59;;;;;;;14.30;5.53;;;14.80;77.20;;;;;;5094714;28;20085;-38
2021/06/22 06:23:32;;;;;;;15.30;5.35;;;14.90;76.70;;;;;;5094120;28;20107;-36
2021/06/22 06:25:58;;;;;;;13.57;5.50;;;15.20;77.00;;;;;;5094122;28;20028;-36
2021/06/22 06:28:28;;;;;;;10.25;4.40;;;15.50;75.50;;;;;;5094370;28;20051;-37
2021/06/22 06:30:54;;;;;;;14.65;5.35;;;15.90;74.10;;;;;;5076458;28;20414;-37
2021/06/22 06:33:20;;;;;;;11.50;4.47;;;16.20;73.20;;;;;;5094310;28;20107;-37
2021/06/22 06:35:46;;;;;;;9.77;4.95;;;16.00;72.90;;;;;;5094429;28;20089;-38
2021/06/22 06:38:14;;;;;;;13.60;5.40;;;16.10;73.10;;;;;;5094063;28;20020;-37
2021/06/22 06:40:40;;;;;;;9.75;4.07;;;16.30;71.80;;;;;;5093680;28;20410;-37
2021/06/22 06:43:06;;;;;;;12.57;4.82;;;16.30;71.10;;;;;;5094260;28;20028;-43
2021/06/22 06:45:33;;;;;;;10.55;5.13;;;15.70;72.50;;;;;;5075639;28;20556;-37
2021/06/22 06:47:58;;;;;;;10.43;5.13;;;15.30;74.40;;;;;;5094766;28;20058;-38
2021/06/22 06:50:24;;;;;;;11.32;5.20;;;15.60;74.60;;;;;;5094011;28;20471;-38
2021/06/22 06:52:50;;;;;;;8.75;4.20;;;15.80;73.20;;;;;;5093390;28;20164;-38
2021/06/22 06:55:26;;;;;;;16.33;4.70;;;16.00;73.10;;;;;;5093710;28;20024;-38
2021/06/22 06:57:53;;;;;;;6.80;4.05;;;16.20;72.40;;;;;;5075289;28;20468;-38
2021/06/22 07:00:20;;;;;;;16.73;4.85;;;15.80;72.10;;;;;;5075286;28;20054;-37
2021/06/22 07:02:46;;;;;;;11.48;4.97;;;15.70;73.20;;;;;;5093506;28;20032;-38
2021/06/22 07:05:12;;;;;;;8.40;3.97;;;15.60;73.50;;;;;;5075189;28;20406;-36
2021/06/22 07:07:38;;;;;;;12.70;4.40;;;15.50;73.90;;;;;;5074968;28;20020;-37
2021/06/22 07:10:04;;;;;;;9.63;4.63;;;15.90;72.60;;;;;;5093244;28;20464;-37
2021/06/22 07:12:29;;;;;;;10.90;4.55;;;16.30;71.40;;;;;;5094382;28;20032;-38
2021/06/22 07:14:58;;;;;;;12.63;4.35;;;16.30;70.20;;;;;;5094081;28;20375;-37
2021/06/22 07:17:23;;;;;;;10.98;4.07;;;16.10;70.90;;;;;;5093513;28;20349;-37
2021/06/22 07:19:49;;;;;;;9.25;4.10;;;16.40;70.40;;;;;;5093475;28;20073;-37
2021/06/22 07:22:15;;;;;;;13.88;4.75;;;16.40;70.40;;;;;;5093473;28;20024;-38
2021/06/22 07:24:43;;;;;;;14.30;6.90;;;16.30;70.60;;;;;;5075533;28;20052;-37
2021/06/22 07:27:09;;;;;;;8.48;4.45;;;16.00;71.30;;;;;;5094537;28;20024;-37
2021/06/22 07:29:35;;;;;;;18.80;5.10;;;15.80;71.20;;;;;;5093051;28;20020;-37
2021/06/22 07:32:01;;;;;;;9.60;3.95;;;15.90;71.40;;;;;;5092377;28;20177;-38
2021/06/22 07:34:27;;;;;;;10.10;4.38;;;16.30;70.40;;;;;;5075510;28;20024;-37
2021/06/22 07:36:56;;;;;;;12.05;3.83;;;16.50;69.90;;;;;;5094121;28;20052;-38
2021/06/22 07:39:22;;;;;;;6.65;4.15;;;16.70;68.80;;;;;;5093414;28;20356;-38
2021/06/22 07:41:48;;;;;;;11.95;4.60;;;16.50;69.50;;;;;;5093230;28;20016;-36
2021/06/22 07:44:13;;;;;;;5.82;3.17;;;16.60;69.50;;;;;;5075129;28;20035;-37
2021/06/22 07:46:39;;;;;;;5.65;3.42;;;16.80;68.30;;;;;;5093411;28;20383;-41
2021/06/22 07:49:05;;;;;;;9.70;4.03;;;16.50;68.20;;;;;;5093297;28;20028;-40
2021/06/22 07:51:30;;;;;;;15.60;4.00;;;16.30;68.90;;;;;;5075056;28;20036;-38
2021/06/22 07:53:57;;;;;;;7.60;3.25;;;16.10;68.70;;;;;;5093506;28;20036;-38
2021/06/22 07:56:23;;;;;;;5.72;3.60;;;16.40;68.20;;;;;;5093346;28;20107;-36
2021/06/22 07:58:54;;;;;;;10.73;3.85;;;16.70;67.60;;;;;;5093089;28;20452;-37
2021/06/22 08:01:23;;;;;;;8.38;3.40;;;16.60;67.50;;;;;;5093046;28;20059;-39
2021/06/22 08:03:48;;;;;;;10.02;3.53;;;17.20;66.10;;;;;;5093278;28;20085;-37
2021/06/22 08:06:17;;;;;;;8.98;3.40;;;17.10;65.90;;;;;;5092550;28;20043;-37
2021/06/22 08:08:46;;;;;;;16.85;5.05;;;17.30;65.60;;;;;;5092713;28;20032;-38
2021/06/22 08:11:11;;;;;;;11.52;4.95;;;17.60;64.90;;;;;;5092753;28;20035;-39
2021/06/22 08:13:37;;;;;;;7.82;3.47;;;17.40;65.30;;;;;;5092737;28;20458;-37
2021/06/22 08:16:04;;;;;;;10.95;4.13;;;17.20;65.10;;;;;;5092915;28;20020;-40
2021/06/22 08:18:32;;;;;;;4.45;2.92;;;17.30;65.40;;;;;;5092849;28;20020;-39
2021/06/22 08:20:59;;;;;;;9.73;4.15;;;17.50;64.60;;;;;;5092669;28;20081;-38
2021/06/22 08:23:25;;;;;;;11.80;3.35;;;17.50;64.10;;;;;;5093288;28;20027;-37
2021/06/22 08:25:55;;;;;;;11.00;3.60;;;17.30;64.10;;;;;;5093128;28;20383;-46
2021/06/22 08:28:22;;;;;;;8.57;3.55;;;17.50;64.00;;;;;;5093059;28;20111;-38
2021/06/22 08:30:49;;;;;;;11.52;3.35;;;17.10;63.90;;;;;;5092773;28;20364;-36
2021/06/22 08:33:14;;;;;;;9.95;3.42;;;17.00;63.70;;;;;;5074719;28;20036;-37
2021/06/22 08:35:41;;;;;;;5.65;2.90;;;17.10;63.90;;;;;;5093708;28;20032;-36
2021/06/22 08:38:09;;;;;;;6.38;3.33;;;17.10;64.10;;;;;;5092947;28;20020;-39
2021/06/22 08:40:46;;;;;;;5.90;2.97;;;17.10;64.20;;;;;;5092198;28;20104;-38
2021/06/22 08:43:17;;;;;;;7.57;2.88;;;17.30;63.00;;;;;;5096851;28;20341;-38
2021/06/22 08:45:44;;;;;;;8.15;3.75;;;17.30;63.70;;;;;;5096298;28;20058;-38
2021/06/22 08:48:10;;;;;;;8.52;3.28;;;17.10;64.60;;;;;;5096244;28;20024;-38
2021/06/22 08:50:37;;;;;;;9.00;4.03;;;17.20;64.30;;;;;;5095933;28;20407;-37
2021/06/22 08:53:03;;;;;;;11.45;3.65;;;17.50;63.90;;;;;;5096394;28;20285;-37
2021/06/22 08:55:30;;;;;;;5.85;3.20;;;17.30;63.80;;;;;;5096432;28;20107;-37
2021/06/22 08:57:59;;;;;;;7.68;3.55;;;17.40;63.70;;;;;;5096345;28;20024;-37
2021/06/22 09:00:26;;;;;;;8.05;4.07;;;17.80;63.60;;;;;;5095810;28;20432;-37
2021/06/22 09:03:05;;;;;;;7.55;2.92;;;17.80;63.90;;;;;;5095943;28;20031;-36
2021/06/22 09:05:31;;;;;;;11.73;3.13;;;17.90;62.70;;;;;;5096144;28;20112;-36
2021/06/22 09:07:57;;;;;;;8.05;4.15;;;17.70;63.20;;;;;;5096083;28;20099;-37
2021/06/22 09:10:33;;;;;;;14.30;3.58;;;17.80;63.90;;;;;;5095794;28;20024;-37
2021/06/22 09:13:25;;;;;;;9.68;3.15;;;17.90;63.30;;;;;;5095655;28;20024;-37
2021/06/22 09:15:53;;;;;;;8.50;4.38;;;17.70;63.20;;;;;;5095981;28;20024;-36
2021/06/22 09:18:44;;;;;;;12.68;3.60;;;17.80;63.20;;;;;;5095744;28;20031;-36
2021/06/22 09:21:26;;;;;;;8.70;3.33;;;17.70;63.10;;;;;;5096107;28;20034;-46
2021/06/22 09:23:54;;;;;;;6.88;3.20;;;17.90;62.90;;;;;;5097681;28;20035;-48
2021/06/22 09:26:30;;;;;;;9.85;4.18;;;17.90;62.70;;;;;;5095385;28;20107;-49
2021/06/22 09:29:11;;;;;;;7.68;2.60;;;17.80;62.70;;;;;;5095629;28;20023;-47
2021/06/22 09:31:50;;;;;;;8.50;3.17;;;17.70;63.20;;;;;;5095320;28;20513;-48
2021/06/22 09:34:18;;;;;;;8.63;3.47;;;17.40;63.90;;;;;;5095694;28;20479;-53
2021/06/22 09:36:54;;;;;;;9.63;3.58;;;17.20;64.70;;;;;;5095042;28;20020;-49
2021/06/22 09:39:22;;;;;;;7.25;3.20;;;17.30;65.50;;;;;;5077096;28;20024;-48
2021/06/22 09:41:50;;;;;;;11.93;3.15;;;17.60;64.20;;;;;;5095006;28;20052;-49
2021/06/22 09:44:25;;;;;;;7.88;3.15;;;17.70;63.10;;;;;;5077109;28;20035;-48
2021/06/22 09:46:56;;;;;;;7.30;3.30;;;17.70;63.30;;;;;;5095062;28;20055;-49
2021/06/22 09:49:26;;;;;;;13.90;3.47;;;17.50;63.30;;;;;;5095073;28;20058;-47
2021/06/22 09:51:56;;;;;;;;;;;17.70;62.80;;;;;;5077901;28;20020;-48
2021/06/22 09:54:33;;;;;;;8.93;3.33;;;18.20;61.70;;;;;;5094911;28;19956;-49
2021/06/22 09:57:16;;;;;;;7.13;3.00;;;18.60;59.80;;;;;;5094704;28;20039;-47
2021/06/22 09:59:49;;;;;;;7.38;2.65;;;18.70;59.40;;;;;;5094761;28;20076;-48
2021/06/22 10:02:15;;;;;;;4.25;2.63;;;18.20;59.50;;;;;;5094756;28;20016;-47
2021/06/22 10:04:46;;;;;;;7.22;2.92;;;17.90;60.60;;;;;;5076677;28;20107;-46
2021/06/22 10:07:17;;;;;;;12.52;3.65;;;18.00;60.80;;;;;;5095014;28;20012;-46
2021/06/22 10:09:43;;;;;;;3.63;2.67;;;18.30;59.60;;;;;;5094788;28;20047;-48
2021/06/22 10:12:13;;;;;;;7.70;2.80;;;17.90;60.30;;;;;;5094870;28;20494;-48
2021/06/22 10:14:45;;;;;;;12.73;3.70;;;17.70;60.40;;;;;;5094687;28;20024;-49
2021/06/22 10:17:21;;;;;;;10.30;3.00;;;17.80;60.90;;;;;;5095075;28;20050;-48
2021/06/22 10:19:53;;;;;;;6.22;3.03;;;17.90;60.70;;;;;;5062602;28;20182;-47
2021/06/22 10:22:22;;;;;;;9.98;2.60;;;17.90;60.10;;;;;;5094289;28;20515;-49
2021/06/22 10:24:48;;;;;;;6.30;2.58;;;17.80;60.10;;;;;;5095440;28;20024;-49
2021/06/22 10:27:16;;;;;;;8.05;3.47;;;17.80;60.80;;;;;;5094058;28;20492;-48
2021/06/22 10:29:44;;;;;;;9.48;2.60;;;17.90;60.50;;;;;;5094024;28;20071;-49
2021/06/22 10:32:12;;;;;;;9.63;3.13;;;17.60;61.70;;;;;;5093874;28;20032;-48
2021/06/22 10:34:38;;;;;;;10.75;2.78;;;17.50;62.50;;;;;;5094582;28;20086;-50
2021/06/22 10:37:13;;;;;;;6.93;3.42;;;17.70;62.00;;;;;;5093846;28;20347;-48
2021/06/22 10:40:04;;;;;;;4.03;2.55;;;17.80;60.00;;;;;;5094074;28;20024;-51
2021/06/22 10:42:41;;;;;;;4.65;3.72;;;17.40;61.40;;;;;;5094331;28;20036;-48
2021/06/22 10:45:08;;;;;;;8.77;3.15;;;17.50;61.70;;;;;;5076067;28;20426;-48
2021/06/22 10:47:39;;;;;;;10.32;3.40;;;17.80;61.00;;;;;;5094256;28;20077;-52
2021/06/22 10:50:22;;;;;;;6.47;3.35;;;18.00;60.50;;;;;;5094378;28;20032;-51
2021/06/22 10:52:49;;;;;;;4.30;3.50;;;17.70;60.90;;;;;;5094380;28;20376;-50
2021/06/22 10:55:21;;;;;;;5.35;4.15;;;17.50;61.20;;;;;;5094109;28;20357;-49
2021/06/22 11:00:56;;;;;;;17.52;5.63;;;17.50;62.10;;;;;;5090015;28;20028;-48
2021/06/22 11:03:22;;;;;;;4.07;2.70;;;17.60;61.50;;;;;;5094006;28;20112;-48
2021/06/22 11:06:03;;;;;;;9.45;3.00;;;17.70;60.90;;;;;;5093821;28;20494;-50
2021/06/22 11:08:30;;;;;;;9.55;3.25;;;17.80;60.60;;;;;;5095154;28;20165;-49
2021/06/22 11:10:56;;;;;;;9.02;3.45;;;18.20;58.80;;;;;;5093684;28;20107;-48
2021/06/22 11:13:34;;;;;;;5.85;3.08;;;18.70;58.10;;;;;;5093677;28;20150;-47
2021/06/22 11:16:02;;;;;;;7.07;3.95;;;18.90;56.90;;;;;;5093331;28;20016;-47
2021/06/22 11:18:53;;;;;;;5.13;3.17;;;19.20;56.50;;;;;;5093102;28;20020;-48
2021/06/22 11:21:40;;;;;;;11.93;4.88;;;19.20;57.00;;;;;;5093496;28;20344;-48
2021/06/22 11:24:11;;;;;;;11.70;4.22;;;18.50;58.10;;;;;;5061564;28;20107;-47
2021/06/22 11:26:46;;;;;;;5.80;3.78;;;18.30;58.50;;;;;;5094090;28;20527;-48
2021/06/22 11:29:17;;;;;;;7.70;4.20;;;18.20;59.50;;;;;;5093550;28;20099;-50
2021/06/22 11:31:45;;;;;;;8.48;3.72;;;17.90;60.30;;;;;;5093706;28;20043;-47
2021/06/22 11:34:13;;;;;;;10.70;4.00;;;17.90;60.20;;;;;;5093644;28;20035;-48
2021/06/22 11:36:52;;;;;;;8.02;3.70;;;17.90;61.30;;;;;;5074883;28;20044;-50
2021/06/22 11:39:29;;;;;;;12.95;4.45;;;18.50;59.00;;;;;;5092814;28;20099;-48
2021/06/22 11:44:44;;;;;;;9.05;4.28;;;19.60;56.00;;;;;;5092757;28;20470;-49
2021/06/22 11:47:30;;;;;;;4.75;2.75;;;19.70;54.00;;;;;;5092757;28;20028;-48
2021/06/22 11:50:17;;;;;;;12.60;4.80;;;19.00;56.70;;;;;;5074187;28;20029;-49
2021/06/22 11:52:45;;;;;;;11.98;4.13;;;18.90;57.30;;;;;;5092697;28;20561;-47
2021/06/22 11:55:15;;;;;;;6.50;3.42;;;19.20;56.50;;;;;;5093239;28;20016;-51
2021/06/22 11:58:02;;;;;;;8.73;3.80;;;19.20;55.90;;;;;;5092590;28;20024;-50
2021/06/22 12:00:32;;;;;;;7.35;3.97;;;19.30;56.10;;;;;;5074884;28;20115;-50
2021/06/22 12:03:01;;;;;;;6.47;3.63;;;19.30;56.20;;;;;;5093086;28;20028;-48
2021/06/22 12:05:29;;;;;;;8.73;3.72;;;19.30;55.70;;;;;;5074553;28;20497;-47
2021/06/22 12:08:08;;;;;;;8.85;4.03;;;19.00;57.40;;;;;;5092320;28;20043;-46
2021/06/22 12:10:44;;;;;;;8.10;3.97;;;19.00;57.20;;;;;;5093030;28;20020;-47
2021/06/22 12:13:10;;;;;;;6.78;3.35;;;19.00;57.50;;;;;;5075174;28;20282;-46
2021/06/22 12:15:39;;;;;;;12.23;3.53;;;19.20;56.40;;;;;;5092771;28;20027;-50
2021/06/22 12:18:05;;;;;;;11.40;3.50;;;19.20;56.20;;;;;;5095982;28;20353;-46
2021/06/22 12:20:34;;;;;;;4.22;3.20;;;19.10;56.70;;;;;;5097229;28;20086;-50
2021/06/22 12:23:13;;;;;;;6.57;3.58;;;19.30;56.30;;;;;;5097038;28;20035;-49
2021/06/22 12:25:45;;;;;;;6.95;4.07;;;19.10;55.70;;;;;;5080228;28;20031;-52
2021/06/22 12:28:15;;;;;;;8.85;3.70;;;18.70;57.80;;;;;;5079267;28;20051;-48
2021/06/22 12:30:49;;;;;;;6.50;3.80;;;18.80;57.70;;;;;;5078934;28;20115;-48
2021/06/22 12:33:20;;;;;;;15.93;7.38;;;19.00;57.50;;;;;;5097058;28;20054;-47
2021/06/22 12:35:52;;;;;;;6.05;3.97;;;19.20;56.80;;;;;;5097347;28;20028;-50
2021/06/22 12:38:19;;;;;;;16.35;6.15;;;18.80;57.50;;;;;;5079421;28;20065;-49
2021/06/22 12:40:52;;;;;;;6.57;3.60;;;18.80;58.50;;;;;;5078512;28;20028;-48
2021/06/22 12:43:19;;;;;;;8.57;4.15;;;19.10;58.00;;;;;;5096592;28;20106;-48
2021/06/22 12:45:59;;;;;;;14.70;6.45;;;19.30;56.40;;;;;;5078550;28;20078;-47
2021/06/22 12:48:25;;;;;;;11.68;4.35;;;19.30;56.80;;;;;;5096893;28;20035;-47
2021/06/22 12:50:53;;;;;;;9.63;4.32;;;19.70;55.40;;;;;;5079153;28;20417;-47
2021/06/22 12:53:19;;;;;;;11.35;4.93;;;20.00;54.70;;;;;;5096545;28;20039;-47